Time;durP1;ratioP1;P1;durP2;ratioP2;P2;SDS_P1;SDS_P2;PMS_P1;PMS_P2;Temp;Humidity;BMP_temperature;BMP_pressure;BME280_temperature;BME280_humidity;BME280_pressure;Samples;Min_cycle;Max_cycle;Signal;HPM_P1;HPM_P2
2022/11/17 00:00:02;;;;;;;35.67;25.87;;;;;21.80;98219.00;;;;2078670;28;20241;-50
2022/11/17 00:01:07;;;;;;;31.43;24.77;;;;;21.80;98220.00;;;;2078850;28;20221;-48
2022/11/17 00:02:07;;;;;;;32.97;25.33;;;;;21.80;98220.00;;;;2078025;28;20857;-49
2022/11/17 00:03:11;;;;;;;34.57;24.30;;;;;21.70;98219.00;;;;2079005;28;20716;-49
2022/11/17 00:04:11;;;;;;;35.33;24.77;;;;;21.70;98215.00;;;;2078618;28;20225;-48
2022/11/17 00:05:12;;;;;;;33.80;24.40;;;;;21.80;98214.00;;;;2078749;28;20435;-49
2022/11/17 00:06:12;;;;;;;30.30;23.43;;;;;21.80;98216.00;;;;2078441;28;20218;-49
2022/11/17 00:07:13;;;;;;;30.73;23.90;;;;;21.70;98202.00;;;;2078732;28;20300;-49
2022/11/17 00:08:13;;;;;;;32.70;24.20;;;;;21.80;98202.00;;;;2078284;28;20284;-49
2022/11/17 00:09:16;;;;;;;29.40;22.13;;;;;21.80;98194.00;;;;2078347;28;20210;-50
2022/11/17 00:10:16;;;;;;;29.38;21.60;;;;;21.70;98190.00;;;;2078784;28;20217;-49
2022/11/17 00:11:17;;;;;;;30.00;21.43;;;;;21.70;98186.00;;;;2078630;28;20220;-48
2022/11/17 00:14:54;;;;;;;28.85;20.73;;;;;21.70;98181.00;;;;2077444;28;20689;-49
2022/11/17 00:15:55;;;;;;;26.53;21.03;;;;;21.70;98178.00;;;;2078441;28;20214;-49
2022/11/17 00:16:55;;;;;;;26.50;20.60;;;;;21.70;98179.00;;;;2078167;28;20252;-50
2022/11/17 00:21:51;;;;;;;27.13;20.20;;;;;21.70;98153.00;;;;2068227;28;20206;-49
2022/11/17 00:22:52;;;;;;;25.03;19.80;;;;;21.70;98159.00;;;;2072018;28;20297;-48
2022/11/17 00:23:52;;;;;;;22.90;17.40;;;;;21.70;98151.00;;;;2078507;28;20217;-49
2022/11/17 00:24:52;;;;;;;26.20;19.00;;;;;21.70;98156.00;;;;2077331;28;20240;-49
2022/11/17 00:25:53;;;;;;;22.57;17.83;;;;;21.70;98148.00;;;;2078329;28;20213;-49
2022/11/17 00:27:02;;;;;;;21.17;17.23;;;;;21.70;98142.00;;;;2076583;28;20214;-49
2022/11/17 00:28:02;;;;;;;24.58;18.13;;;;;21.60;98143.00;;;;2078110;28;20217;-48
2022/11/17 00:29:04;;;;;;;25.50;18.43;;;;;21.60;98137.00;;;;2078538;28;20292;-49
2022/11/17 00:30:05;;;;;;;23.50;17.98;;;;;21.70;98128.00;;;;2077641;28;20553;-49
2022/11/17 00:34:04;;;;;;;21.38;16.83;;;;;21.70;98113.00;;;;2069830;28;20626;-49
2022/11/17 00:35:05;;;;;;;21.73;16.05;;;;;21.60;98100.00;;;;2069596;28;20596;-49
2022/11/17 00:36:05;;;;;;;19.70;15.60;;;;;21.60;98092.00;;;;2069702;28;20264;-49
2022/11/17 00:37:05;;;;;;;21.60;17.10;;;;;21.70;98093.00;;;;2070175;28;20210;-48
2022/11/17 00:38:15;;;;;;;21.33;15.70;;;;;21.60;98092.00;;;;2068754;28;20309;-49
2022/11/17 00:39:16;;;;;;;20.70;15.30;;;;;21.60;98088.00;;;;2069792;28;20656;-49
2022/11/17 00:40:16;;;;;;;21.53;16.70;;;;;21.60;98095.00;;;;2070152;28;20222;-49
2022/11/17 00:41:16;;;;;;;23.43;16.50;;;;;21.60;98081.00;;;;2070027;28;20530;-49
2022/11/17 00:42:17;;;;;;;22.20;15.60;;;;;21.60;98082.00;;;;2069366;28;20234;-49
2022/11/17 00:43:17;;;;;;;18.23;14.73;;;;;21.60;98076.00;;;;2069944;28;20295;-49
2022/11/17 00:44:18;;;;;;;17.90;13.80;;;;;21.60;98071.00;;;;2070306;28;20267;-49
2022/11/17 00:45:18;;;;;;;18.83;14.63;;;;;21.60;98071.00;;;;2070045;28;20222;-49
2022/11/17 00:46:18;;;;;;;20.70;16.00;;;;;21.60;98081.00;;;;2070081;28;20853;-49
2022/11/17 00:47:19;;;;;;;19.60;14.77;;;;;21.60;98064.00;;;;2070135;28;20245;-49
2022/11/17 00:48:19;;;;;;;18.77;15.20;;;;;21.60;98071.00;;;;2068381;28;20210;-49
2022/11/17 00:49:23;;;;;;;17.93;15.00;;;;;21.60;98068.00;;;;2070600;28;20218;-48
2022/11/17 00:50:24;;;;;;;17.85;13.90;;;;;21.60;98050.00;;;;2070665;28;20210;-49
2022/11/17 00:51:24;;;;;;;18.37;14.03;;;;;21.60;98044.00;;;;2070617;28;20240;-49
2022/11/17 00:52:24;;;;;;;19.77;15.20;;;;;21.60;98051.00;;;;2069427;28;20234;-49
2022/11/17 00:53:25;;;;;;;19.97;13.63;;;;;21.60;98057.00;;;;2070002;28;20210;-48
2022/11/17 00:54:25;;;;;;;18.40;13.90;;;;;21.60;98054.00;;;;2070538;28;20217;-50
2022/11/17 00:55:25;;;;;;;16.30;13.17;;;;;21.60;98052.00;;;;2067421;28;20234;-49
2022/11/17 00:56:26;;;;;;;18.60;13.40;;;;;21.60;98054.00;;;;2070598;28;20324;-49
2022/11/17 00:57:26;;;;;;;17.60;13.07;;;;;21.60;98047.00;;;;2070697;28;20210;-50
2022/11/17 00:58:26;;;;;;;19.53;14.87;;;;;21.60;98049.00;;;;2070557;28;20218;-49
2022/11/17 00:59:27;;;;;;;15.33;12.40;;;;;21.60;98044.00;;;;2070190;28;20218;-49
2022/11/17 01:00:27;;;;;;;19.90;13.70;;;;;21.60;98042.00;;;;2070542;28;20216;-49
2022/11/17 01:01:28;;;;;;;14.87;12.50;;;;;21.60;98045.00;;;;2070480;28;20214;-49
2022/11/17 01:02:29;;;;;;;16.60;13.10;;;;;21.60;98041.00;;;;2069479;28;20241;-48
2022/11/17 01:03:29;;;;;;;17.67;12.77;;;;;21.60;98052.00;;;;2070659;28;20214;-49
2022/11/17 01:04:29;;;;;;;15.50;12.07;;;;;21.50;98040.00;;;;2070306;28;20253;-49
2022/11/17 01:05:30;;;;;;;17.50;12.33;;;;;21.60;98036.00;;;;2070440;28;20213;-49
2022/11/17 01:06:32;;;;;;;17.90;12.60;;;;;21.60;98040.00;;;;2070500;28;20221;-49
2022/11/17 01:07:32;;;;;;;16.20;11.48;;;;;21.60;98032.00;;;;2070512;28;20237;-49
2022/11/17 01:08:33;;;;;;;14.60;10.80;;;;;21.50;98029.00;;;;2070221;28;20222;-49
2022/11/17 01:09:33;;;;;;;15.85;12.25;;;;;21.60;98040.00;;;;2076154;28;20221;-49
2022/11/17 01:10:34;;;;;;;15.40;11.50;;;;;21.60;98037.00;;;;2078405;28;20665;-49
2022/11/17 01:11:34;;;;;;;14.33;11.30;;;;;21.50;98042.00;;;;2078547;28;20539;-49
2022/11/17 01:12:35;;;;;;;14.23;11.37;;;;;21.60;98033.00;;;;2077617;28;20233;-50
2022/11/17 01:13:36;;;;;;;15.80;11.27;;;;;21.50;98036.00;;;;2078601;28;20209;-49
2022/11/17 01:14:36;;;;;;;13.73;10.20;;;;;21.60;98030.00;;;;2078193;28;20695;-50
2022/11/17 01:15:37;;;;;;;14.43;10.80;;;;;21.60;98027.00;;;;2078480;28;20210;-51
2022/11/17 01:16:37;;;;;;;14.63;10.43;;;;;21.50;98024.00;;;;2078459;28;20224;-50
2022/11/17 01:17:37;;;;;;;12.43;9.43;;;;;21.50;98031.00;;;;2078546;28;20214;-49
2022/11/17 01:18:38;;;;;;;14.07;9.93;;;;;21.50;98032.00;;;;2078317;28;20255;-49
2022/11/17 01:19:38;;;;;;;12.20;9.47;;;;;21.50;98012.00;;;;2078586;28;20222;-50
2022/11/17 01:20:38;;;;;;;12.73;9.63;;;;;21.50;98018.00;;;;2077978;28;20708;-50
2022/11/17 01:21:39;;;;;;;11.97;9.73;;;;;21.50;98027.00;;;;2077189;28;20240;-50
2022/11/17 01:22:39;;;;;;;12.00;9.10;;;;;21.50;98005.00;;;;2074074;28;20298;-50
2022/11/17 01:23:40;;;;;;;11.00;8.83;;;;;21.50;98006.00;;;;2070269;28;20222;-49
2022/11/17 01:24:41;;;;;;;12.40;9.30;;;;;21.50;98006.00;;;;2070407;28;20225;-49
2022/11/17 01:25:41;;;;;;;10.93;8.60;;;;;21.50;98005.00;;;;2070082;28;20219;-49
2022/11/17 01:26:42;;;;;;;11.77;8.83;;;;;21.50;98002.00;;;;2070160;28;20233;-49
2022/11/17 01:27:42;;;;;;;10.63;8.50;;;;;21.50;97994.00;;;;2069801;28;20214;-49
2022/11/17 01:28:42;;;;;;;11.03;9.40;;;;;21.50;98003.00;;;;2070193;28;20679;-48
2022/11/17 01:29:43;;;;;;;11.07;9.10;;;;;21.50;97988.00;;;;2069777;28;20225;-49
2022/11/17 01:30:43;;;;;;;13.07;8.50;;;;;21.50;97995.00;;;;2070106;28;20766;-49
2022/11/17 01:31:44;;;;;;;11.60;8.50;;;;;21.50;97990.00;;;;2069882;28;20732;-49
2022/11/17 01:32:44;;;;;;;11.07;8.43;;;;;21.50;97998.00;;;;2069429;28;20694;-49
2022/11/17 01:33:44;;;;;;;11.90;8.47;;;;;21.50;97984.00;;;;2069576;28;20214;-49
2022/11/17 01:34:46;;;;;;;10.83;8.60;;;;;21.50;97990.00;;;;2069229;28;20214;-49
2022/11/17 01:35:46;;;;;;;9.60;7.95;;;;;21.50;97982.00;;;;2069098;28;20649;-49
2022/11/17 01:38:05;;;;;;;10.38;8.07;;;;;21.50;97978.00;;;;2068943;28;20234;-49
2022/11/17 01:39:05;;;;;;;10.10;7.80;;;;;21.50;97983.00;;;;2069569;28;20381;-49
2022/11/17 01:40:07;;;;;;;10.37;8.20;;;;;21.50;97973.00;;;;2069729;28;20245;-49
2022/11/17 01:41:15;;;;;;;9.95;7.57;;;;;21.50;97963.00;;;;2069567;28;20690;-49
2022/11/17 01:42:17;;;;;;;10.70;7.90;;;;;21.50;97970.00;;;;2068566;28;20674;-49
2022/11/17 01:43:37;;;;;;;10.25;7.70;;;;;21.50;97969.00;;;;2070374;28;20233;-49
2022/11/17 01:44:47;;;;;;;11.15;8.00;;;;;21.50;97963.00;;;;2071258;28;20218;-49
2022/11/17 01:45:48;;;;;;;10.15;7.88;;;;;21.50;97955.00;;;;2071158;28;20221;-49
2022/11/17 01:46:48;;;;;;;8.93;7.37;;;;;21.50;97954.00;;;;2071331;28;20246;-50
2022/11/17 01:47:54;;;;;;;10.43;7.50;;;;;21.50;97965.00;;;;2071563;28;20259;-50
2022/11/17 01:49:06;;;;;;;8.75;6.82;;;;;21.50;97959.00;;;;2062763;28;20254;-49
2022/11/17 01:50:18;;;;;;;8.38;6.82;;;;;21.50;97950.00;;;;2064086;28;20320;-49
2022/11/17 01:51:18;;;;;;;8.68;7.20;;;;;21.50;97945.00;;;;2071071;28;20206;-49
2022/11/17 01:52:19;;;;;;;10.27;7.37;;;;;21.40;97951.00;;;;2070782;28;20206;-49
2022/11/17 01:53:19;;;;;;;8.63;6.70;;;;;21.50;97934.00;;;;2071695;28;20687;-49
2022/11/17 01:54:21;;;;;;;9.10;6.57;;;;;21.40;97935.00;;;;2062718;28;20776;-49
2022/11/17 01:55:21;;;;;;;8.63;7.40;;;;;21.40;97929.00;;;;2054868;28;20758;-49
2022/11/17 01:56:23;;;;;;;10.10;7.13;;;;;21.40;97942.00;;;;2071006;28;20264;-48
2022/11/17 01:57:29;;;;;;;7.43;6.00;;;;;21.40;97930.00;;;;2079210;28;20612;-49
2022/11/17 01:58:31;;;;;;;6.97;6.13;;;;;21.50;97936.00;;;;2087368;28;20266;-49
2022/11/17 01:59:40;;;;;;;7.35;6.03;;;;;21.50;97918.00;;;;2087014;28;20212;-50
2022/11/17 02:00:40;;;;;;;9.40;6.88;;;;;21.40;97928.00;;;;2078927;28;20284;-49
2022/11/17 02:01:54;;;;;;;8.03;6.10;;;;;21.40;97924.00;;;;2079350;28;20209;-49
2022/11/17 02:02:54;;;;;;;11.00;6.78;;;;;21.40;97923.00;;;;2078888;28;20214;-49
2022/11/17 02:03:54;;;;;;;7.00;5.70;;;;;21.40;97916.00;;;;2072482;28;20210;-49
2022/11/17 02:05:13;;;;;;;6.80;5.27;;;;;21.40;97916.00;;;;2079224;28;20214;-50
2022/11/17 02:06:26;;;;;;;7.20;6.22;;;;;21.40;97905.00;;;;2079515;28;20897;-49
2022/11/17 02:07:31;;;;;;;7.70;5.80;;;;;21.40;97896.00;;;;2070706;28;20210;-49
2022/11/17 02:08:32;;;;;;;7.90;6.00;;;;;21.40;97891.00;;;;2064504;28;20215;-49
2022/11/17 02:09:32;;;;;;;8.20;5.50;;;;;21.40;97902.00;;;;2079157;28;20206;-48
2022/11/17 02:10:33;;;;;;;7.50;5.50;;;;;21.40;97902.00;;;;2071002;28;20230;-49
2022/11/17 02:11:34;;;;;;;7.17;5.43;;;;;21.40;97891.00;;;;2062917;28;20241;-49
2022/11/17 02:12:35;;;;;;;7.15;5.65;;;;;21.40;97887.00;;;;2062197;28;20230;-49
2022/11/17 02:13:35;;;;;;;6.60;4.97;;;;;21.40;97898.00;;;;2070871;28;20214;-49
2022/11/17 02:14:35;;;;;;;6.97;5.00;;;;;21.40;97891.00;;;;2070829;28;20221;-49
2022/11/17 02:15:36;;;;;;;6.80;5.60;;;;;21.40;97893.00;;;;2079008;28;20225;-50
2022/11/17 02:16:36;;;;;;;6.77;5.10;;;;;21.40;97899.00;;;;2078707;28;20226;-49
2022/11/17 02:17:38;;;;;;;6.57;5.47;;;;;21.40;97870.00;;;;2079789;28;20252;-49
2022/11/17 02:18:39;;;;;;;8.02;5.28;;;;;21.40;97868.00;;;;2070435;28;20233;-50
2022/11/17 02:19:40;;;;;;;7.28;5.45;;;;;21.40;97862.00;;;;2071079;28;20651;-49
2022/11/17 02:21:06;;;;;;;7.00;5.35;;;;;21.40;97868.00;;;;2078989;28;20228;-49
2022/11/17 02:22:39;;;;;;;5.95;4.50;;;;;21.40;97881.00;;;;2068281;28;20243;-49
2022/11/17 02:24:01;;;;;;;6.47;4.45;;;;;21.40;97873.00;;;;2077480;28;20220;-50
2022/11/17 02:25:39;;;;;;;6.93;4.85;;;;;21.40;97873.00;;;;2079056;28;20221;-49
2022/11/17 02:26:58;;;;;;;5.65;4.40;;;;;21.40;97863.00;;;;2053669;28;20223;-49
2022/11/17 02:28:14;;;;;;;5.45;4.47;;;;;21.40;97867.00;;;;2053614;28;20214;-49
2022/11/17 02:29:26;;;;;;;4.88;4.28;;;;;21.40;97856.00;;;;2060040;28;20214;-49
2022/11/17 02:30:27;;;;;;;5.40;4.18;;;;;21.30;97857.00;;;;2065721;28;20225;-50
2022/11/17 02:32:02;;;;;;;7.15;4.97;;;;;21.40;97862.00;;;;2054792;28;20826;-49
2022/11/17 02:33:23;;;;;;;5.70;4.20;;;;;21.40;97862.00;;;;2063714;28;20214;-49
2022/11/17 02:34:36;;;;;;;7.13;4.10;;;;;21.40;97852.00;;;;2070609;28;20218;-49
2022/11/17 02:35:41;;;;;;;7.53;4.50;;;;;21.30;97862.00;;;;2063903;28;20234;-49
2022/11/17 02:36:54;;;;;;;4.55;3.80;;;;;21.40;97853.00;;;;2070881;28;20292;-48
2022/11/17 02:38:04;;;;;;;5.20;3.83;;;;;21.40;97851.00;;;;2062846;28;20215;-49
2022/11/17 02:39:10;;;;;;;5.63;4.28;;;;;21.40;97850.00;;;;2063196;28;20529;-49
2022/11/17 02:40:32;;;;;;;4.75;3.85;;;;;21.40;97856.00;;;;2069981;28;20222;-49
2022/11/17 02:41:53;;;;;;;5.13;3.55;;;;;21.30;97850.00;;;;2069833;28;20263;-49
2022/11/17 02:44:18;;;;;;;5.65;3.90;;;;;21.30;97845.00;;;;2066992;28;20694;-49
2022/11/17 02:45:24;;;;;;;4.00;3.22;;;;;21.40;97857.00;;;;2067375;28;20214;-49
2022/11/17 02:46:24;;;;;;;4.78;3.78;;;;;21.30;97844.00;;;;2061036;28;20219;-49
2022/11/17 02:47:28;;;;;;;5.20;3.77;;;;;21.30;97848.00;;;;2054355;28;20211;-49
2022/11/17 02:48:34;;;;;;;3.60;2.97;;;;;21.30;97847.00;;;;2054591;28;20216;-50
2022/11/17 02:49:35;;;;;;;5.07;3.63;;;;;21.30;97848.00;;;;2055302;28;20215;-49
2022/11/17 02:50:36;;;;;;;5.55;3.60;;;;;21.30;97840.00;;;;2069858;28;20218;-49
2022/11/17 02:52:04;;;;;;;5.50;3.73;;;;;21.30;97834.00;;;;2062513;28;20577;-50
2022/11/17 02:53:05;;;;;;;3.85;3.20;;;;;21.30;97829.00;;;;2066164;28;20225;-49
2022/11/17 02:54:05;;;;;;;6.83;3.37;;;;;21.30;97830.00;;;;2061206;28;20219;-49
2022/11/17 02:55:07;;;;;;;3.93;3.27;;;;;21.30;97830.00;;;;2055639;28;20215;-49
2022/11/17 02:56:07;;;;;;;4.20;3.30;;;;;21.30;97839.00;;;;2070394;28;20226;-49
2022/11/17 02:57:27;;;;;;;4.37;3.23;;;;;21.30;97839.00;;;;2079625;28;20263;-49
2022/11/17 02:58:27;;;;;;;3.92;3.15;;;;;21.30;97840.00;;;;2076679;28;20729;-49
2022/11/17 02:59:35;;;;;;;4.20;2.80;;;;;21.30;97826.00;;;;2071398;28;20210;-49
2022/11/17 03:00:37;;;;;;;4.10;3.00;;;;;21.30;97830.00;;;;2062196;28;20250;-50
2022/11/17 03:01:44;;;;;;;4.60;3.05;;;;;21.30;97838.00;;;;2062354;28;20235;-49
2022/11/17 03:02:49;;;;;;;4.47;3.30;;;;;21.30;97843.00;;;;2070212;28;20292;-49
2022/11/17 03:04:15;;;;;;;4.35;3.40;;;;;21.30;97823.00;;;;2070538;28;20265;-49
2022/11/17 03:05:29;;;;;;;4.30;2.95;;;;;21.30;97829.00;;;;2065786;28;20218;-50
2022/11/17 03:06:59;;;;;;;2.90;2.42;;;;;21.30;97830.00;;;;2063726;28;20268;-49
2022/11/17 03:08:15;;;;;;;5.20;3.03;;;;;21.30;97832.00;;;;2067875;28;20726;-49
2022/11/17 03:09:23;;;;;;;3.88;2.60;;;;;21.30;97820.00;;;;2070797;28;20808;-49
2022/11/17 03:10:32;;;;;;;3.42;2.70;;;;;21.30;97819.00;;;;2062038;28;20219;-54
2022/11/17 03:11:58;;;;;;;2.92;2.55;;;;;21.30;97826.00;;;;2064078;28;20238;-49
2022/11/17 03:13:04;;;;;;;3.95;2.80;;;;;21.30;97811.00;;;;2065305;28;20624;-49
2022/11/17 03:14:11;;;;;;;3.78;2.80;;;;;21.30;97814.00;;;;2067764;28;20310;-49
2022/11/17 03:15:14;;;;;;;3.90;2.70;;;;;21.30;97807.00;;;;2062470;28;20289;-48
2022/11/17 03:16:31;;;;;;;4.30;2.70;;;;;21.20;97809.00;;;;2054891;28;20251;-49
2022/11/17 03:17:36;;;;;;;2.70;2.25;;;;;21.30;97807.00;;;;2063796;28;20467;-49
2022/11/17 03:18:52;;;;;;;3.53;2.88;;;;;21.30;97798.00;;;;2054763;28;20220;-49
2022/11/17 03:20:00;;;;;;;3.47;2.47;;;;;21.30;97811.00;;;;2058581;28;20232;-49
2022/11/17 03:21:09;;;;;;;3.35;2.60;;;;;21.30;97809.00;;;;2062555;28;20214;-49
2022/11/17 03:22:15;;;;;;;2.67;2.25;;;;;21.30;97807.00;;;;2068868;28;20218;-50
2022/11/17 03:23:20;;;;;;;3.15;2.20;;;;;21.30;97798.00;;;;2064176;28;20237;-50
2022/11/17 03:24:28;;;;;;;3.97;3.00;;;;;21.30;97807.00;;;;2063437;28;20560;-49
2022/11/17 03:25:30;;;;;;;3.95;2.90;;;;;21.30;97807.00;;;;2062920;28;20305;-49
2022/11/17 03:26:32;;;;;;;3.20;2.30;;;;;21.30;97817.00;;;;2069822;28;20207;-50
2022/11/17 03:27:35;;;;;;;3.10;2.47;;;;;21.30;97809.00;;;;2078339;28;20205;-49
2022/11/17 03:28:35;;;;;;;3.50;2.20;;;;;21.30;97804.00;;;;2077824;28;20201;-49
2022/11/17 03:29:36;;;;;;;2.70;2.00;;;;;21.20;97801.00;;;;2078344;28;20220;-50
2022/11/17 03:30:39;;;;;;;3.17;2.00;;;;;21.20;97808.00;;;;2069977;28;20210;-49
2022/11/17 03:31:39;;;;;;;2.65;2.13;;;;;21.30;97799.00;;;;2069892;28;20214;-49
2022/11/17 03:32:42;;;;;;;2.70;2.20;;;;;21.20;97800.00;;;;2077308;28;20224;-49
2022/11/17 03:33:42;;;;;;;2.67;1.80;;;;;21.20;97790.00;;;;2077884;28;20202;-50
2022/11/17 03:34:49;;;;;;;3.10;2.30;;;;;21.20;97799.00;;;;2062187;28;20423;-48
2022/11/17 03:35:53;;;;;;;2.40;2.05;;;;;21.20;97804.00;;;;2062579;28;21002;-50
2022/11/17 03:36:57;;;;;;;2.60;1.90;;;;;21.20;97798.00;;;;2070266;28;20297;-49
2022/11/17 03:38:00;;;;;;;3.10;2.10;;;;;21.20;97789.00;;;;2066269;28;20268;-50
2022/11/17 03:39:13;;;;;;;3.33;2.40;;;;;21.10;97782.00;;;;2054000;28;20227;-50
2022/11/17 03:40:19;;;;;;;2.40;1.75;;;;;21.20;97803.00;;;;2063727;28;20227;-49
2022/11/17 03:41:19;;;;;;;2.30;1.98;;;;;21.20;97782.00;;;;2055571;28;20211;-49
2022/11/17 03:42:22;;;;;;;3.23;1.90;;;;;21.20;97784.00;;;;2061501;28;20244;-49
2022/11/17 03:43:22;;;;;;;2.15;1.80;;;;;21.20;97775.00;;;;2077980;28;20217;-49
2022/11/17 03:44:23;;;;;;;3.23;2.10;;;;;21.20;97767.00;;;;2069477;28;20206;-50
2022/11/17 03:45:40;;;;;;;3.47;2.33;;;;;21.20;97781.00;;;;2070096;28;20203;-49
2022/11/17 03:46:41;;;;;;;3.10;2.20;;;;;21.20;97783.00;;;;2077745;28;20215;-49
2022/11/17 03:47:41;;;;;;;2.70;1.40;;;;;21.20;97794.00;;;;2070141;28;20210;-49
2022/11/17 03:48:58;;;;;;;4.37;2.27;;;;;21.20;97778.00;;;;2069997;28;20640;-48
2022/11/17 03:50:05;;;;;;;2.53;1.95;;;;;21.20;97778.00;;;;2072002;28;20703;-55
2022/11/17 03:51:12;;;;;;;2.53;1.70;;;;;21.20;97779.00;;;;2078668;28;20214;-50
2022/11/17 03:52:12;;;;;;;2.30;1.60;;;;;21.20;97747.00;;;;2078023;28;20210;-49
2022/11/17 03:53:13;;;;;;;2.53;1.90;;;;;21.20;97772.00;;;;2070311;28;20238;-49
2022/11/17 03:54:14;;;;;;;2.63;1.60;;;;;21.20;97738.00;;;;2070238;28;20214;-49
2022/11/17 03:55:15;;;;;;;2.50;1.70;;;;;21.20;97756.00;;;;2066485;28;20226;-49
2022/11/17 03:56:30;;;;;;;2.47;1.70;;;;;21.20;97744.00;;;;2061370;28;20215;-49
2022/11/17 03:57:40;;;;;;;2.60;1.92;;;;;21.20;97739.00;;;;2071813;28;20704;-50
2022/11/17 03:58:54;;;;;;;2.38;2.17;;;;;21.20;97751.00;;;;2061885;28;20223;-50
2022/11/17 03:59:58;;;;;;;2.60;1.88;;;;;21.20;97747.00;;;;2064798;28;20710;-49
2022/11/17 04:00:58;;;;;;;2.55;1.52;;;;;21.20;97744.00;;;;2062155;28;20214;-49
2022/11/17 04:01:59;;;;;;;1.93;1.47;;;;;21.20;97741.00;;;;2061281;28;20795;-49
2022/11/17 04:02:59;;;;;;;2.07;1.40;;;;;21.20;97749.00;;;;2070000;28;20206;-49
2022/11/17 04:03:59;;;;;;;2.60;1.43;;;;;21.20;97751.00;;;;2069950;28;20209;-49
2022/11/17 04:05:06;;;;;;;1.83;1.50;;;;;21.20;97746.00;;;;2070323;28;20304;-49
2022/11/17 04:06:06;;;;;;;2.47;1.85;;;;;21.20;97739.00;;;;2067495;28;20578;-49
2022/11/17 04:07:06;;;;;;;2.03;1.53;;;;;21.20;97752.00;;;;2071013;28;20218;-49
2022/11/17 04:08:07;;;;;;;2.77;1.87;;;;;21.20;97729.00;;;;2070909;28;20222;-49
2022/11/17 04:09:07;;;;;;;2.10;1.57;;;;;21.20;97748.00;;;;2070387;28;20211;-49
2022/11/17 04:10:09;;;;;;;2.20;1.60;;;;;21.20;97735.00;;;;2071043;28;20221;-50
2022/11/17 04:16:25;;;;;;;1.85;1.30;;;;;21.20;97732.00;;;;2070260;28;20206;-49
2022/11/17 04:17:26;;;;;;;2.37;1.50;;;;;21.20;97718.00;;;;2075134;28;20217;-48
2022/11/17 04:18:26;;;;;;;2.20;1.30;;;;;21.10;97732.00;;;;2077672;28;20283;-49
2022/11/17 04:19:26;;;;;;;1.90;1.40;;;;;21.10;97733.00;;;;2077956;28;20225;-50
2022/11/17 04:20:34;;;;;;;2.87;1.83;;;;;21.10;97725.00;;;;2077717;28;20689;-49
2022/11/17 04:21:35;;;;;;;2.50;1.52;;;;;21.10;97716.00;;;;2077461;28;20216;-50
2022/11/17 04:22:35;;;;;;;2.20;1.10;;;;;21.10;97706.00;;;;2077624;28;20221;-50
2022/11/17 04:23:35;;;;;;;1.83;1.40;;;;;21.20;97702.00;;;;2078347;28;20256;-50
2022/11/17 04:24:35;;;;;;;2.50;1.33;;;;;21.10;97703.00;;;;2078443;28;20232;-49
2022/11/17 04:29:33;;;;;;;1.83;1.40;;;;;21.20;97711.00;;;;2078629;28;20229;-49
2022/11/17 04:30:34;;;;;;;1.70;1.17;;;;;21.10;97705.00;;;;2078494;28;20213;-50
2022/11/17 04:31:34;;;;;;;2.67;1.27;;;;;21.10;97710.00;;;;2077815;28;20224;-49
2022/11/17 04:32:34;;;;;;;1.93;1.47;;;;;21.10;97662.00;;;;2077182;28;20224;-49
2022/11/17 04:33:35;;;;;;;2.90;1.30;;;;;21.10;97712.00;;;;2078086;28;20592;-49
2022/11/17 04:34:37;;;;;;;2.33;1.30;;;;;21.10;97711.00;;;;2077866;28;20552;-56
2022/11/17 04:35:37;;;;;;;3.05;1.77;;;;;21.10;97716.00;;;;2078359;28;20207;-50
2022/11/17 04:36:45;;;;;;;1.77;1.17;;;;;21.10;97722.00;;;;2077806;28;20240;-50
2022/11/17 04:37:45;;;;;;;1.75;1.20;;;;;21.20;97715.00;;;;2078237;28;20210;-49
2022/11/17 04:38:47;;;;;;;1.70;1.07;;;;;21.20;97718.00;;;;2078384;28;20217;-49
2022/11/17 04:39:47;;;;;;;2.10;1.20;;;;;21.10;97716.00;;;;2078441;28;20237;-49
2022/11/17 04:42:06;;;;;;;1.40;1.02;;;;;21.10;97708.00;;;;2077617;28;20221;-49
2022/11/17 04:43:06;;;;;;;1.70;1.20;;;;;21.20;97716.00;;;;2078013;28;20738;-51
2022/11/17 04:44:08;;;;;;;1.30;1.00;;;;;21.10;97714.00;;;;2077314;28;20522;-54
2022/11/17 04:45:08;;;;;;;2.78;1.33;;;;;21.10;97715.00;;;;2078201;28;20271;-49
2022/11/17 04:46:09;;;;;;;4.53;1.10;;;;;21.10;97714.00;;;;2077138;28;20691;-51
2022/11/17 04:47:09;;;;;;;1.87;1.27;;;;;21.10;97711.00;;;;2077618;28;20217;-49
2022/11/17 04:48:09;;;;;;;2.00;1.47;;;;;21.10;97713.00;;;;2078154;28;20237;-50
2022/11/17 04:49:10;;;;;;;1.83;1.40;;;;;21.10;97720.00;;;;2078300;28;20219;-49
2022/11/17 04:50:10;;;;;;;1.87;1.10;;;;;21.10;97715.00;;;;2078007;28;20209;-49
2022/11/17 04:51:10;;;;;;;2.20;1.07;;;;;21.10;97710.00;;;;2078571;28;20577;-49
2022/11/17 04:52:11;;;;;;;2.03;1.03;;;;;21.10;97719.00;;;;2077172;28;20787;-49
2022/11/17 04:53:11;;;;;;;1.90;1.13;;;;;21.10;97692.00;;;;2072501;28;20220;-49
2022/11/17 04:54:12;;;;;;;2.17;1.10;;;;;21.10;97701.00;;;;2069796;28;20222;-48
2022/11/17 04:55:12;;;;;;;1.10;0.75;;;;;21.10;97697.00;;;;2066117;28;20211;-49
2022/11/17 04:56:13;;;;;;;1.20;0.90;;;;;21.10;97700.00;;;;2069595;28;20222;-49
2022/11/17 04:57:13;;;;;;;1.97;1.30;;;;;21.10;97705.00;;;;2070484;28;20230;-49
2022/11/17 04:58:13;;;;;;;2.30;1.20;;;;;21.10;97710.00;;;;2070665;28;20222;-48
2022/11/17 04:59:14;;;;;;;2.10;1.00;;;;;21.10;97704.00;;;;2069437;28;20232;-49
2022/11/17 05:00:15;;;;;;;1.73;0.90;;;;;21.10;97702.00;;;;2069926;28;20218;-48
2022/11/17 05:01:17;;;;;;;2.85;1.13;;;;;21.10;97704.00;;;;2069168;28;20230;-49
2022/11/17 05:02:17;;;;;;;2.08;1.15;;;;;21.10;97698.00;;;;2068975;28;20234;-49
2022/11/17 05:03:17;;;;;;;1.30;1.00;;;;;21.10;97699.00;;;;2069629;28;20222;-49
2022/11/17 05:05:37;;;;;;;1.15;0.75;;;;;21.10;97696.00;;;;2070198;28;20233;-49
2022/11/17 05:06:41;;;;;;;1.57;1.03;;;;;21.10;97696.00;;;;2077616;28;20213;-50
2022/11/17 05:07:42;;;;;;;1.30;0.95;;;;;21.10;97693.00;;;;2077237;28;20919;-49
2022/11/17 05:08:42;;;;;;;2.00;1.10;;;;;21.10;97703.00;;;;2078214;28;20271;-50
2022/11/17 05:09:43;;;;;;;1.93;0.93;;;;;21.10;97697.00;;;;2077454;28;20249;-50
2022/11/17 05:13:21;;;;;;;1.00;0.63;;;;;21.00;97689.00;;;;2077014;28;20217;-49
2022/11/17 05:14:22;;;;;;;1.30;1.00;;;;;21.00;97699.00;;;;2077203;28;20236;-49
2022/11/17 05:17:03;;;;;;;1.50;1.00;;;;;21.00;97686.00;;;;2077519;28;20220;-49
2022/11/17 05:18:01;;;;;;;1.83;0.80;;;;;21.10;97689.00;;;;2080112;28;20308;-49
2022/11/17 05:19:03;;;;;;;1.80;0.90;;;;;21.10;97689.00;;;;2080002;28;25806;-49
2022/11/17 05:20:03;;;;;;;1.50;1.10;;;;;21.10;97692.00;;;;2068252;28;20226;-49
2022/11/17 05:21:04;;;;;;;2.03;1.13;;;;;21.10;97700.00;;;;2071991;28;20213;-48
2022/11/17 05:23:52;;;;;;;1.80;1.10;;;;;21.10;97695.00;;;;2071192;28;20761;-49
2022/11/17 05:24:44;;;;;;;1.10;0.63;;;;;21.10;97705.00;;;;2070419;28;20221;-49
2022/11/17 05:25:45;;;;;;;1.10;0.90;;;;;21.10;97690.00;;;;2071670;28;20301;-50
2022/11/17 05:26:45;;;;;;;2.23;0.77;;;;;21.10;97678.00;;;;2071362;28;20218;-50
2022/11/17 05:27:46;;;;;;;1.60;0.80;;;;;21.10;97693.00;;;;2071982;28;20209;-49
2022/11/17 05:28:46;;;;;;;1.80;1.10;;;;;21.00;97692.00;;;;2072031;28;20241;-50
2022/11/17 05:29:46;;;;;;;1.40;0.97;;;;;21.00;97687.00;;;;2071509;28;20210;-48
2022/11/17 05:30:47;;;;;;;1.67;0.90;;;;;21.00;97685.00;;;;2071733;28;20234;-50
2022/11/17 05:31:47;;;;;;;2.10;0.83;;;;;21.00;97682.00;;;;2070889;28;20237;-48
2022/11/17 05:32:48;;;;;;;1.37;0.93;;;;;21.00;97692.00;;;;2071640;28;20214;-49
2022/11/17 05:33:48;;;;;;;2.20;0.93;;;;;21.10;97690.00;;;;2071735;28;20210;-49
2022/11/17 05:34:48;;;;;;;1.13;0.70;;;;;21.00;97688.00;;;;2071863;28;20310;-50
2022/11/17 05:35:49;;;;;;;2.27;1.03;;;;;21.00;97686.00;;;;2071773;28;20206;-49
2022/11/17 05:36:49;;;;;;;1.63;1.00;;;;;21.00;97698.00;;;;2071549;28;20217;-49
2022/11/17 05:37:49;;;;;;;1.77;0.60;;;;;21.00;97705.00;;;;2071589;28;20229;-50
2022/11/17 05:38:50;;;;;;;1.77;0.90;;;;;21.00;97716.00;;;;2071567;28;20225;-48
2022/11/17 05:39:50;;;;;;;1.60;0.90;;;;;21.00;97709.00;;;;2071599;28;20206;-48
2022/11/17 05:40:50;;;;;;;3.00;0.90;;;;;21.10;97720.00;;;;2071766;28;20704;-49
2022/11/17 05:41:51;;;;;;;1.93;0.80;;;;;21.00;97724.00;;;;2070801;28;20687;-49
2022/11/17 05:42:51;;;;;;;1.47;0.90;;;;;21.00;97714.00;;;;2071859;28;20848;-49
2022/11/17 05:43:51;;;;;;;2.00;1.07;;;;;21.00;97708.00;;;;2071667;28;20715;-49
2022/11/17 05:44:52;;;;;;;2.57;1.00;;;;;21.00;97713.00;;;;2071619;28;20282;-51
2022/11/17 05:45:52;;;;;;;0.87;0.60;;;;;21.00;97722.00;;;;2071710;28;20248;-49